Aérodrome :







RETROUVEZ-NOUS SUR...

 
LOGIN :

S'inscrire | Disclaimer

   EN    FR    IT 

 









Légende :    VFR   VFR Marginal   IFR   IFR Intensif   IFR Très Intensif
Visi : 
Plafond : 
>= 8 km
>= 3000ft
5 à 8 km
1000 à 3000 ft
1500m à 5 km
500 à 1000 ft
800 à 1500m
200 à 500 ft
< 800m
< 200 ft
Symboles :   Orages  Brouillard  Fortes neiges  Fortes précipitations  Vent > 20 kt






- Altitude de l'aérodrome : 39 ft
- Code IATA : YNA


CYNA - Natashquan

DERNIER METAR :
  • 100833Z AUTO 17023G34KT 3SM -RA BR OVC004 05/04 A2949 RMK PRESFR SLP989

METARs EXPIRÉS :
  • 100827Z AUTO 17022G30KT 2 1/2SM -RA -UP BR OVC004 05/04 A2950 RMK PRESFR SLP992
  • 100816Z AUTO 17025G34KT 2 1/4SM -UP BR OVC004 05/04 A2951 RMK PRESFR SLP996
  • 100801Z AUTO 17025G35KT 1 3/4SM -UP BR OVC004 05/04 A2953 RMK PRESFR SLP002
  • 100755Z AUTO 17025G35KT 1 3/4SM -RA -UP BR OVC004 05/04 A2953 RMK PRESFR SLP003
  • 100748Z AUTO 16024G35KT 2SM -RA BR OVC004 05/04 A2954 RMK PRESFR SLP006
  • 100714Z AUTO 17023G31KT 2SM -UP BR OVC004 04/04 A2960 RMK PRESFR SLP025
  • 100708Z AUTO 16023G31KT 2 1/4SM -UP BR OVC004 04/04 A2961 RMK PRESFR SLP030
  • 100651Z AUTO 15018G25KT 3SM -UP BR OVC004 04/04 A2965 RMK PRESFR SLP042
  • 100645Z AUTO 15017G26KT 3SM -RA -UP BR OVC004 04/04 A2966 RMK PRESFR SLP046
  • 100622Z AUTO 13013G20KT 3SM -RA BR OVC004 03/03 A2970 RMK PRESFR SLP060
  • 100611Z AUTO 12016G23KT 2 1/2SM RA BR BKN004 OVC008 03/02 A2972 RMK PRESFR SLP065
  • 100602Z AUTO 11014G22KT 3SM RA BR BKN004 OVC010 02/02 A2974 RMK PRESFR SLP072

TAF AMD TAF CYNA
Valide du 10 à 08h jusqu'au 10 à 20h UTC


100805Z 1008/1020 17025G35KT 3SM -RA BR OVC006
TEMPO 1008/1012 1SM -RA BR VV003
BECMG 1008/1010 17015G25KT
FM101200 20015G25KT 11/2SM -DZ BR OVC004
TEMPO 1012/1018 4SM -SHRA BR OVC008
BECMG 1012/1014 22015G25KT
FM101800 24012G22KT 3SM -DZ BR OVC008
TEMPO 1018/1020 6SM BR OVC015 RMK FCST BASED ON AUTO OBS. NXT FCST BY 101400Z



MET'MAP, la Météo Aéronautique d'un coup d'oeil ! - Copyright ORBIFLY Décembre 2007 - Disclaimer

ORBIFLY MET'MAP TEAM :

Programmation & Développement : Alexandra Zaïnal
Sur une idée originale de : Baudouin d'Aumeries
Assistance à la programmation : Marc-Olivier Méhu
Soutien technique & logistique : Manuel Goepfert

Contact : metmap@orbifly.com




SOURCES & CREDITS :

   NOAA